x

New York Harbor Entrance - 15 Nm Se Of Breezy Point , Ny (44065) Weather Station

3:50am - Sun 20th Apr 2014 All times are EDT. -4 hours from GMT.

  • Wind
    22mph, 27mph gusts
  • Sea Temp 44°f
  • Air Temp 46°f
  • Sea Pressure 1028.4mb
  • New York Harbor Entrance - 15 Nm Se Of Breezy Point , Ny
  • New York Harbor Entrance - 15 Nm Se Of Breezy Point , Ny

More Historic Weather Station data

Upgrade to MSW Pro to gain access to the past 30 days of data for over 8000 Wavebouys and Weather Stations around the globe.

Join Pro

Comparision Forecast

View Surf forecast
   
Sun 04/20 3:50am 22 27 mph 1028.4mb 44f 46f
2:50am 16
mph
1028.1mb 44f 47f
1:50am 13 16 mph 1027.3mb 45f 49f
12:50am 9 11 mph 1027.3mb 46f 49f
Sat 04/19 11:50pm 7
mph
1027mb 46f 49f
10:50pm 2 4 mph 1026.7mb 46f 48f
9:50pm 2 4 mph 1026.2mb 46f 49f
8:50pm 2 4 mph 1025.6mb 46f 50f
7:50pm 4 7 mph 1024.9mb 46f 48f
6:50pm 7 9 mph 1024.5mb 46f 49f
5:50pm 9
mph
1024.1mb 46f 50f
4:50pm 9 11 mph 1024mb 47f 50f
3:50pm 4 7 mph 1024mb 48f 50f
2:50pm 7 9 mph 1024mb 47f 51f
1:50pm 2 4 mph 1023.8mb 46f 53f
12:50pm 7 9 mph 1024.3mb 45f 48f
11:50am 7 9 mph 1024.9mb 44f 46f
10:50am 7 9 mph 1025.4mb 43f 46f
9:50am 9 11 mph 1024.8mb 43f 44f
8:50am 9 11 mph 1024.7mb 43f 42f
7:50am 11 16 mph 1024.7mb 43f 42f
6:50am 11 13 mph 1024.4mb 43f 41f
5:50am 11 13 mph 1024mb 43f 41f
4:50am 13 16 mph 1024.1mb 43f 41f
3:50am 9 11 mph 1024mb 43f 42f
2:50am 4 7 mph 1024.4mb 43f 41f
1:50am 9 11 mph 1024.8mb 43f 41f
12:50am 11 13 mph 1025.2mb 43f 41f
Fri 04/18 11:50pm 11 13 mph 1025.5mb 43f 41f
10:50pm 4 7 mph 1025.7mb 43f 41f
9:50pm 7 9 mph 1026mb 43f 41f
8:50pm 9 11 mph 1026.9mb 43f 40f
7:50pm 9 11 mph 1026.4mb 44f 40f
6:50pm 7 9 mph 1027.4mb 44f 40f
5:50pm  -  4 mph 1028.5mb 44f 40f
4:50pm 2 4 mph 1028.8mb 44f 40f
3:50pm 2 4 mph 1029.5mb 44f 40f
2:50pm 2 4 mph 1030.8mb 44f 40f
1:50pm 4 9 mph 1031.5mb 43f 39f
12:50pm 9 11 mph 1032.3mb 43f 39f
11:50am 7 11 mph 1032.8mb 43f 38f
10:50am 11 16 mph 1032.7mb 42f 38f
9:50am 11 13 mph 1033.7mb 42f 37f
8:50am 11 13 mph 1034.5mb 42f 37f
7:50am 11 13 mph 1034.1mb 42f 38f
6:50am 11 13 mph 1033.1mb 42f 38f
5:50am 13 18 mph 1033.1mb 42f 38f
4:50am 18 20 mph 1032.6mb 42f 38f
3:50am 16 20 mph 1034.4mb 42f 38f
2:50am 13 18 mph 1035.4mb 42f 39f
1:50am 16 18 mph 1036mb 42f 40f
12:50am 18 20 mph 1035.6mb 42f 40f
Thu 04/17 11:50pm 22 25 mph 1035.4mb 42f 40f
10:50pm 22 29 mph 1035.7mb 43f 40f
9:50pm 18 22 mph 1036.9mb 43f 41f
8:50pm 20 25 mph 1037.3mb 43f 40f
7:50pm 20 25 mph 1037.2mb 43f 40f
6:50pm 18 22 mph 1037.8mb 43f 40f
5:50pm 18 20 mph 1038.2mb 43f 40f
4:50pm 18 22 mph 1038.4mb 43f 40f
3:50pm 18 22 mph 1039mb 43f 40f
2:50pm 20 25 mph 1039.4mb 43f 39f
1:50pm 20 25 mph 1039.8mb 43f 39f
12:50pm 20 22 mph 1040.1mb 43f 39f
11:50am 20 25 mph 1040.4mb 43f 39f
10:50am 20 27 mph 1040.2mb 43f 39f
9:50am 20 25 mph 1039.9mb 42f 39f
8:50am 20 25 mph 1039.2mb 42f 38f
7:50am 22 25 mph 1038.5mb 42f 39f
6:50am 22 27 mph 1037.6mb 42f 39f
5:50am 22 27 mph 1036.4mb 42f 40f
4:50am 20 25 mph 1036.2mb 42f 40f
3:50am 18 22 mph 1036.4mb 42f 40f
2:50am 20 22 mph 1035.9mb 42f 40f
1:50am 16 20 mph 1035.6mb 42f 40f
12:50am 18 22 mph 1035.2mb 42f 41f
Wed 04/16 11:50pm 18 20 mph 1034.5mb 42f 42f
10:50pm 18 22 mph 1033.7mb 42f 42f
9:50pm 18 20 mph 1033.5mb 42f 43f
8:50pm 13 16 mph 1032.6mb 43f 44f
7:50pm 7 9 mph 1031.4mb 43f 44f
6:50pm 11 13 mph 1030.5mb 43f 44f
5:50pm 11 13 mph 1030.2mb 43f 44f
4:50pm 11 13 mph 1029.7mb 43f 44f
3:50pm 11 13 mph 1029.7mb 43f 43f
2:50pm 13 18 mph 1029.6mb 43f 42f
1:50pm 13 18 mph 1029.5mb 43f 40f
12:50pm 20 25 mph 1028.4mb 43f 38f
11:50am 20 25 mph 1028mb 42f 37f
10:50am 22 27 mph 1026.9mb 42f 35f
9:50am 25 29 mph 1025.4mb 42f 34f
8:50am 25 31 mph 1024.5mb 42f 34f